createdAt,value
2023-02-19T00:01:23.244Z,7.50
2023-02-19T00:03:53.307Z,5.45
2023-02-19T00:06:21.487Z,5.00
2023-02-19T00:08:48.428Z,4.82
2023-02-19T00:11:20.283Z,4.88
2023-02-19T00:13:51.033Z,5.57
2023-02-19T00:16:23.096Z,6.57
2023-02-19T00:18:50.349Z,4.90
2023-02-19T00:21:17.534Z,4.90
2023-02-19T00:23:48.082Z,6.35
2023-02-19T00:26:18.451Z,6.68
2023-02-19T00:28:48.813Z,6.90
2023-02-19T00:31:18.027Z,5.20
2023-02-19T00:33:45.914Z,5.28
2023-02-19T00:36:13.395Z,5.13
2023-02-19T00:38:41.985Z,5.38
2023-02-19T00:41:21.637Z,6.05
2023-02-19T00:43:56.656Z,5.20
2023-02-19T00:46:26.698Z,6.95
2023-02-19T00:48:53.894Z,5.40
2023-02-19T00:51:22.552Z,5.28
2023-02-19T00:53:49.450Z,6.90
2023-02-19T00:56:16.535Z,4.57
2023-02-19T00:58:43.060Z,5.00
2023-02-19T01:01:11.639Z,4.80
2023-02-19T01:03:39.050Z,6.53
2023-02-19T01:06:08.417Z,4.22
2023-02-19T01:08:35.956Z,5.15
2023-02-19T01:11:05.106Z,4.75
2023-02-19T01:13:32.527Z,4.40
2023-02-19T01:16:19.810Z,5.20
2023-02-19T01:18:47.647Z,5.43
2023-02-19T01:21:23.852Z,4.72
2023-02-19T01:23:51.285Z,5.95
2023-02-19T01:26:23.662Z,4.65
2023-02-19T01:28:50.536Z,5.30
2023-02-19T01:31:20.718Z,5.18
2023-02-19T01:33:49.217Z,5.38
2023-02-19T01:36:16.444Z,5.72
2023-02-19T01:38:43.386Z,4.70
2023-02-19T01:41:13.261Z,5.57
2023-02-19T01:44:04.187Z,4.18
2023-02-19T01:46:33.361Z,4.90
2023-02-19T01:49:06.108Z,6.70
2023-02-19T01:51:35.289Z,6.32
2023-02-19T01:54:05.392Z,5.97
2023-02-19T01:56:34.827Z,5.97
2023-02-19T01:59:02.020Z,6.03
2023-02-19T02:01:28.690Z,5.90
2023-02-19T02:03:55.470Z,5.65
2023-02-19T02:06:29.529Z,5.43
2023-02-19T02:09:16.009Z,6.07
2023-02-19T02:11:47.700Z,5.57
2023-02-19T02:14:17.220Z,8.50
2023-02-19T02:17:01.956Z,4.70
2023-02-19T02:20:03.283Z,6.97
2023-02-19T02:22:46.156Z,7.07
2023-02-19T02:25:19.382Z,5.32
2023-02-19T02:28:23.340Z,6.47
2023-02-19T02:31:02.703Z,7.15
2023-02-19T02:33:48.656Z,6.18
2023-02-19T02:36:20.392Z,6.53
2023-02-19T02:38:48.708Z,4.63
2023-02-19T02:41:16.210Z,5.45
2023-02-19T02:43:42.762Z,6.13
2023-02-19T02:46:12.250Z,4.45
2023-02-19T02:48:56.507Z,6.30
2023-02-19T02:51:27.225Z,6.30
2023-02-19T02:54:39.361Z,6.35
2023-02-19T02:57:14.694Z,8.48
2023-02-19T02:59:49.062Z,5.40
2023-02-19T03:02:24.671Z,5.30
2023-02-19T03:05:36.128Z,4.78
2023-02-19T03:08:20.412Z,5.45
2023-02-19T03:11:19.879Z,4.63
2023-02-19T03:14:06.099Z,4.80
2023-02-19T03:16:56.319Z,4.82
2023-02-19T03:19:27.401Z,4.25
2023-02-19T03:24:51.091Z,4.28
2023-02-19T03:27:20.944Z,6.00
2023-02-19T03:29:54.549Z,4.57
2023-02-19T03:32:29.693Z,4.43
2023-02-19T03:35:13.721Z,4.22
2023-02-19T03:38:29.783Z,4.90
2023-02-19T03:41:09.623Z,4.95
2023-02-19T03:44:02.972Z,5.03
2023-02-19T03:47:03.643Z,4.22
2023-02-19T03:49:47.923Z,3.30
2023-02-19T03:52:41.445Z,6.07
2023-02-19T03:55:17.888Z,4.63
2023-02-19T03:57:58.325Z,3.05
2023-02-19T04:00:31.638Z,3.45
2023-02-19T04:03:29.192Z,4.70
2023-02-19T04:06:01.836Z,4.10
2023-02-19T04:08:31.536Z,3.70
2023-02-19T04:11:07.400Z,4.40
2023-02-19T04:13:45.795Z,3.88
2023-02-19T04:16:20.412Z,3.42
2023-02-19T04:18:51.342Z,2.80
2023-02-19T04:21:20.421Z,4.40
2023-02-19T04:23:47.700Z,3.75
2023-02-19T04:26:16.422Z,4.75
2023-02-19T04:28:44.152Z,3.70
2023-02-19T04:31:11.654Z,3.20
2023-02-19T04:33:38.401Z,3.47
2023-02-19T04:36:05.363Z,7.65
2023-02-19T04:38:31.776Z,4.43
2023-02-19T04:40:58.338Z,3.15
2023-02-19T04:43:24.769Z,3.28
2023-02-19T04:45:51.208Z,3.72
2023-02-19T04:48:17.637Z,2.50
2023-02-19T04:50:44.046Z,5.43
2023-02-19T04:53:10.463Z,2.97
2023-02-19T04:55:38.180Z,3.17
2023-02-19T04:58:04.792Z,2.95
2023-02-19T05:00:31.752Z,5.32
2023-02-19T05:02:58.203Z,2.30
2023-02-19T05:05:24.625Z,3.35
2023-02-19T05:07:51.013Z,3.85
2023-02-19T05:10:17.538Z,2.38
2023-02-19T05:12:43.958Z,3.13
2023-02-19T05:15:10.399Z,2.05
2023-02-19T05:17:36.836Z,2.60
2023-02-19T05:20:03.620Z,2.22
2023-02-19T05:22:30.242Z,2.35
2023-02-19T05:24:56.636Z,4.30
2023-02-19T05:27:23.054Z,2.80
2023-02-19T05:29:49.439Z,2.28
2023-02-19T05:32:15.956Z,3.13
2023-02-19T05:34:42.414Z,2.20
2023-02-19T05:37:08.830Z,2.70
2023-02-19T05:39:35.313Z,2.45
2023-02-19T05:42:01.732Z,2.03
2023-02-19T05:44:28.168Z,1.90
2023-02-19T05:46:54.560Z,1.77
2023-02-19T05:49:20.937Z,1.88
2023-02-19T05:51:50.760Z,2.83
2023-02-19T05:54:17.171Z,3.22
2023-02-19T05:56:43.620Z,1.77
2023-02-19T05:59:21.606Z,2.28
2023-02-19T06:01:50.008Z,2.15
2023-02-19T06:04:17.173Z,2.08
2023-02-19T06:06:43.728Z,3.20
2023-02-19T06:09:10.967Z,2.85
2023-02-19T06:11:37.633Z,2.88
2023-02-19T06:14:05.108Z,1.52
2023-02-19T06:16:33.596Z,1.40
2023-02-19T06:19:03.771Z,1.83
2023-02-19T06:21:30.270Z,1.42
2023-02-19T06:23:56.692Z,1.70
2023-02-19T06:26:24.912Z,1.45
2023-02-19T06:28:53.156Z,1.95
2023-02-19T06:31:22.346Z,1.30
2023-02-19T06:33:50.546Z,2.20
2023-02-19T06:36:19.693Z,2.08
2023-02-19T06:38:46.424Z,1.48
2023-02-19T06:41:13.512Z,1.20
2023-02-19T06:43:40.532Z,0.80
2023-02-19T06:46:07.861Z,0.70
2023-02-19T06:48:34.855Z,0.70
2023-02-19T06:51:01.302Z,0.70
2023-02-19T06:53:27.804Z,3.40
2023-02-19T06:55:57.345Z,0.70
2023-02-19T06:58:23.833Z,0.60
2023-02-19T07:00:50.304Z,0.95
2023-02-19T07:03:16.760Z,1.02
2023-02-19T07:05:43.839Z,0.60
2023-02-19T07:08:10.311Z,0.52
2023-02-19T07:10:36.714Z,0.43
2023-02-19T07:13:03.172Z,0.50
2023-02-19T07:15:29.814Z,0.73
2023-02-19T07:17:56.210Z,1.27
2023-02-19T07:20:22.614Z,0.57
2023-02-19T07:22:49.006Z,0.50
2023-02-19T07:25:15.472Z,0.95
2023-02-19T07:27:41.889Z,0.50
2023-02-19T07:30:08.958Z,1.75
2023-02-19T07:32:35.376Z,0.60
2023-02-19T07:35:01.767Z,1.00
2023-02-19T07:37:28.241Z,0.75
2023-02-19T07:39:54.616Z,0.68
2023-02-19T07:42:21.015Z,0.90
2023-02-19T07:44:47.432Z,1.33
2023-02-19T07:47:13.826Z,1.05
2023-02-19T07:49:40.201Z,2.95
2023-02-19T07:52:06.613Z,4.10
2023-02-19T07:54:33.030Z,1.40
2023-02-19T07:56:59.738Z,1.48
2023-02-19T07:59:26.129Z,1.30
2023-02-19T08:02:11.237Z,3.63
2023-02-19T08:04:37.686Z,1.67
2023-02-19T08:07:05.324Z,1.75
2023-02-19T08:09:33.283Z,2.05
2023-02-19T08:12:18.408Z,2.40
2023-02-19T08:14:44.852Z,2.65
2023-02-19T08:17:11.312Z,2.50
2023-02-19T08:19:37.857Z,3.42
2023-02-19T08:22:04.273Z,4.40
2023-02-19T08:24:33.700Z,3.13
2023-02-19T08:27:00.124Z,4.35
2023-02-19T08:29:26.630Z,1.80
2023-02-19T08:31:53.106Z,1.52
2023-02-19T08:34:19.524Z,1.40
2023-02-19T08:36:45.914Z,1.85
2023-02-19T08:39:12.312Z,1.20
2023-02-19T08:41:38.754Z,1.58
2023-02-19T08:44:05.194Z,1.50
2023-02-19T08:46:33.482Z,3.38
2023-02-19T08:49:00.761Z,3.03
2023-02-19T08:51:27.252Z,2.85
2023-02-19T08:53:53.637Z,1.40
2023-02-19T08:56:20.117Z,1.65
2023-02-19T08:58:46.608Z,1.80
2023-02-19T09:01:15.683Z,1.60
2023-02-19T09:03:42.717Z,1.95
2023-02-19T09:06:16.149Z,1.15
2023-02-19T09:08:42.621Z,2.20
2023-02-19T09:11:09.287Z,2.53
2023-02-19T09:13:35.872Z,1.85
2023-02-19T09:16:05.928Z,2.17
2023-02-19T09:18:32.531Z,1.88
2023-02-19T09:21:04.598Z,2.03
2023-02-19T09:23:35.324Z,1.95
2023-02-19T09:26:06.525Z,1.95
2023-02-19T09:28:33.103Z,1.73
2023-02-19T09:31:07.296Z,1.75
2023-02-19T09:33:33.752Z,1.10
2023-02-19T09:36:02.835Z,1.50
2023-02-19T09:38:30.820Z,1.33
2023-02-19T09:40:58.899Z,2.00
2023-02-19T09:43:29.091Z,1.20
2023-02-19T09:46:02.971Z,1.40
2023-02-19T09:48:29.543Z,1.35
2023-02-19T09:50:57.961Z,1.75
2023-02-19T09:53:33.789Z,3.17
2023-02-19T09:56:01.377Z,1.33
2023-02-19T09:58:33.361Z,1.95
2023-02-19T10:01:03.384Z,1.35
2023-02-19T10:03:34.866Z,2.95
2023-02-19T10:06:24.690Z,2.50
2023-02-19T10:09:18.157Z,1.58
2023-02-19T10:11:45.032Z,1.98
2023-02-19T10:14:21.955Z,2.78
2023-02-19T10:16:50.145Z,5.55
2023-02-19T10:19:16.962Z,4.13
2023-02-19T10:21:44.104Z,2.60
2023-02-19T10:24:21.206Z,1.90
2023-02-19T10:26:49.416Z,2.22
2023-02-19T10:29:15.853Z,2.78
2023-02-19T10:31:42.440Z,1.60
2023-02-19T10:34:19.343Z,2.00
2023-02-19T10:36:48.519Z,3.10
2023-02-19T10:39:29.704Z,1.60
2023-02-19T10:41:56.237Z,2.75
2023-02-19T10:44:29.320Z,1.63
2023-02-19T10:46:58.948Z,1.58
2023-02-19T10:49:40.157Z,1.45
2023-02-19T10:52:17.945Z,1.38
2023-02-19T10:54:46.032Z,1.88
2023-02-19T10:57:15.213Z,3.92
2023-02-19T10:59:51.526Z,2.17
2023-02-19T11:02:20.497Z,2.95
2023-02-19T11:05:18.183Z,2.28
2023-02-19T11:07:55.880Z,5.75
2023-02-19T11:10:28.659Z,3.35
2023-02-19T11:13:02.046Z,2.08
2023-02-19T11:15:32.156Z,3.92
2023-02-19T11:18:36.037Z,2.45
2023-02-19T11:21:05.398Z,2.33
2023-02-19T11:23:38.345Z,2.83
2023-02-19T11:26:07.178Z,3.47
2023-02-19T11:28:39.375Z,1.90
2023-02-19T11:31:27.049Z,5.10
2023-02-19T11:33:57.163Z,2.92
2023-02-19T11:36:23.538Z,3.72
2023-02-19T11:38:50.013Z,4.07
2023-02-19T11:41:41.709Z,3.80
2023-02-19T11:44:46.507Z,1.15
2023-02-19T11:47:45.361Z,3.72
2023-02-19T11:50:42.875Z,2.35
2023-02-19T11:53:29.681Z,2.42
2023-02-19T11:56:12.795Z,3.28
2023-02-19T11:59:00.659Z,1.67
2023-02-19T12:01:54.190Z,1.90
2023-02-19T12:04:55.936Z,1.73
2023-02-19T12:07:40.908Z,3.80
2023-02-19T12:10:21.058Z,2.80
2023-02-19T12:12:54.496Z,5.85
2023-02-19T12:15:39.701Z,2.92
2023-02-19T12:18:40.939Z,3.50
2023-02-19T12:21:33.867Z,2.60
2023-02-19T12:24:30.357Z,1.90
2023-02-19T12:27:24.502Z,3.53
2023-02-19T12:30:14.192Z,4.45
2023-02-19T12:33:09.303Z,1.88
2023-02-19T12:35:46.393Z,1.10
2023-02-19T12:38:33.366Z,3.55
2023-02-19T12:41:26.670Z,2.72
2023-02-19T12:43:58.745Z,1.50
2023-02-19T12:46:32.238Z,3.30
2023-02-19T12:49:05.634Z,3.10
2023-02-19T12:51:55.211Z,1.73
2023-02-19T12:54:34.715Z,3.08
2023-02-19T12:57:06.540Z,3.33
2023-02-19T12:59:43.788Z,1.45
2023-02-19T13:02:13.116Z,2.55
2023-02-19T13:04:55.914Z,5.05
2023-02-19T13:07:39.239Z,2.67
2023-02-19T13:10:33.791Z,2.85
2023-02-19T13:13:06.247Z,2.17
2023-02-19T13:15:42.173Z,1.77
2023-02-19T13:18:20.339Z,1.98
2023-02-19T13:20:48.844Z,3.38
2023-02-19T13:23:47.753Z,1.83
2023-02-19T13:26:45.344Z,4.82
2023-02-19T13:29:39.624Z,3.28
2023-02-19T13:32:29.985Z,3.40
2023-02-19T13:35:53.433Z,2.92
2023-02-19T13:38:20.502Z,3.38
2023-02-19T13:40:55.654Z,1.80
2023-02-19T13:43:34.701Z,2.70
2023-02-19T13:46:10.714Z,2.42
2023-02-19T13:48:39.234Z,4.07
2023-02-19T13:51:23.587Z,3.10
2023-02-19T13:54:00.477Z,2.25
2023-02-19T13:56:30.048Z,4.15
2023-02-19T13:58:57.812Z,3.42
2023-02-19T14:01:58.262Z,4.05
2023-02-19T14:04:41.907Z,4.10
2023-02-19T14:07:08.263Z,4.97
2023-02-19T14:09:43.947Z,3.78
2023-02-19T14:12:10.386Z,3.60
2023-02-19T14:14:53.410Z,2.40
2023-02-19T14:17:25.891Z,3.92
2023-02-19T14:19:56.326Z,3.33
2023-02-19T14:22:44.724Z,2.67
2023-02-19T14:25:30.805Z,4.22
2023-02-19T14:28:30.354Z,3.25
2023-02-19T14:31:01.295Z,2.55
2023-02-19T14:33:37.679Z,2.25
2023-02-19T14:36:20.034Z,3.38
2023-02-19T14:39:11.927Z,4.13
2023-02-19T14:41:41.142Z,2.90
2023-02-19T14:44:27.662Z,2.10
2023-02-19T14:47:09.575Z,5.07
2023-02-19T14:49:44.345Z,2.92
2023-02-19T14:52:20.408Z,3.80
2023-02-19T14:54:56.254Z,3.90
2023-02-19T14:57:35.727Z,1.30
2023-02-19T15:00:19.842Z,2.88
2023-02-19T15:02:46.319Z,3.17
2023-02-19T15:05:17.565Z,10.50
2023-02-19T15:10:14.080Z,8.05
2023-02-19T15:12:52.355Z,6.30
2023-02-19T15:15:23.021Z,10.23
2023-02-19T15:17:50.998Z,6.05
2023-02-19T15:20:22.495Z,17.85
2023-02-19T15:22:49.518Z,16.30
2023-02-19T15:25:19.106Z,9.18
2023-02-19T15:27:45.780Z,6.43
2023-02-19T15:30:20.638Z,8.88
2023-02-19T15:32:56.106Z,5.38
2023-02-19T15:35:24.996Z,3.95
2023-02-19T15:37:52.750Z,4.82
2023-02-19T15:40:23.688Z,5.03
2023-02-19T15:42:50.143Z,4.32
2023-02-19T15:45:24.973Z,4.43
2023-02-19T15:48:03.602Z,3.28
2023-02-19T15:50:33.314Z,8.65
2023-02-19T15:53:09.219Z,3.53
2023-02-19T15:55:53.099Z,2.45
2023-02-19T15:58:22.173Z,7.07
2023-02-19T16:00:53.068Z,3.97
2023-02-19T16:03:23.075Z,4.93
2023-02-19T16:06:05.170Z,8.25
2023-02-19T16:08:36.707Z,4.63
2023-02-19T16:11:06.586Z,7.65
2023-02-19T16:13:34.919Z,8.68
2023-02-19T16:16:15.315Z,6.07
2023-02-19T16:18:47.653Z,4.25
2023-02-19T16:21:16.744Z,4.38
2023-02-19T16:23:45.309Z,5.28
2023-02-19T16:26:12.305Z,9.75
2023-02-19T16:28:40.925Z,5.30
2023-02-19T16:31:10.858Z,4.57
2023-02-19T16:33:48.206Z,6.63
2023-02-19T16:36:26.390Z,4.13
2023-02-19T16:39:08.623Z,3.53
2023-02-19T16:41:41.112Z,3.90
2023-02-19T16:44:37.460Z,3.92
2023-02-19T16:47:12.390Z,6.18
2023-02-19T16:49:38.850Z,7.13
2023-02-19T16:52:05.443Z,5.82
2023-02-19T16:54:31.885Z,5.40
2023-02-19T16:56:58.474Z,4.75
2023-02-19T16:59:24.864Z,5.57
2023-02-19T17:01:51.461Z,6.78
2023-02-19T17:04:17.902Z,9.63
2023-02-19T17:06:45.539Z,11.93
2023-02-19T17:09:12.049Z,3.47
2023-02-19T17:11:38.528Z,4.97
2023-02-19T17:14:05.012Z,6.13
2023-02-19T17:16:39.644Z,6.60
2023-02-19T17:19:14.289Z,2.80
2023-02-19T17:21:41.403Z,3.97
2023-02-19T17:24:07.918Z,5.22
2023-02-19T17:26:34.354Z,2.22
2023-02-19T17:29:04.316Z,3.90
2023-02-19T17:31:31.659Z,4.85
2023-02-19T17:33:58.975Z,5.88
2023-02-19T17:36:30.763Z,4.68
2023-02-19T17:38:59.134Z,5.32
2023-02-19T17:41:25.959Z,6.00
2023-02-19T17:43:52.411Z,6.63
2023-02-19T17:46:24.761Z,4.13
2023-02-19T17:48:51.562Z,3.45
2023-02-19T17:51:18.021Z,3.50
2023-02-19T17:53:46.444Z,5.38
2023-02-19T17:56:19.607Z,7.70
2023-02-19T17:58:46.222Z,7.07
2023-02-19T18:01:13.782Z,5.38
2023-02-19T18:03:40.411Z,5.05
2023-02-19T18:06:07.223Z,5.55
2023-02-19T18:08:33.667Z,5.30
2023-02-19T18:11:00.809Z,3.42
2023-02-19T18:13:27.262Z,4.85
2023-02-19T18:15:53.681Z,5.68
2023-02-19T18:18:23.113Z,5.20
2023-02-19T18:20:49.980Z,6.78
2023-02-19T18:23:16.558Z,3.97
2023-02-19T18:25:43.008Z,6.13
2023-02-19T18:28:09.471Z,4.28
2023-02-19T18:30:35.932Z,7.97
2023-02-19T18:33:02.426Z,4.45
2023-02-19T18:35:28.807Z,5.15
2023-02-19T18:37:55.839Z,6.43
2023-02-19T18:40:25.833Z,7.22
2023-02-19T18:42:52.352Z,8.05
2023-02-19T18:45:19.034Z,5.97
2023-02-19T18:47:47.284Z,9.82
2023-02-19T18:50:13.801Z,8.82
2023-02-19T18:52:40.218Z,9.75
2023-02-19T18:55:07.184Z,5.43
2023-02-19T18:57:33.589Z,4.80
2023-02-19T18:59:59.959Z,4.65
2023-02-19T19:02:28.255Z,7.18
2023-02-19T19:04:57.072Z,7.28
2023-02-19T19:07:23.531Z,9.50
2023-02-19T19:09:50.245Z,6.72
2023-02-19T19:12:16.948Z,5.60
2023-02-19T19:14:44.665Z,12.70
2023-02-19T19:17:11.167Z,10.80
2023-02-19T19:19:37.620Z,5.20
2023-02-19T19:22:04.022Z,6.57
2023-02-19T19:24:30.407Z,6.55
2023-02-19T19:26:56.810Z,11.07
2023-02-19T19:29:23.617Z,5.97
2023-02-19T19:31:50.586Z,7.20
2023-02-19T19:34:17.574Z,4.78
2023-02-19T19:36:44.270Z,5.85
2023-02-19T19:39:10.856Z,6.45
2023-02-19T19:41:37.319Z,11.02
2023-02-19T19:44:05.834Z,4.95
2023-02-19T19:46:33.531Z,11.25
2023-02-19T19:49:00.153Z,7.18
2023-02-19T19:51:34.055Z,3.20
2023-02-19T19:54:03.005Z,4.35
2023-02-19T19:56:30.173Z,8.43
2023-02-19T19:58:56.580Z,4.22
2023-02-19T20:01:23.599Z,3.92
2023-02-19T20:03:51.100Z,5.82
2023-02-19T20:06:29.699Z,6.88
2023-02-19T20:08:56.531Z,6.43
2023-02-19T20:11:23.406Z,8.43
2023-02-19T20:13:49.923Z,6.68
2023-02-19T20:16:16.394Z,5.63
2023-02-19T20:18:42.833Z,8.82
2023-02-19T20:21:10.613Z,6.85
2023-02-19T20:23:40.283Z,5.43
2023-02-19T20:26:07.333Z,4.47
2023-02-19T20:28:33.758Z,7.68
2023-02-19T20:31:00.531Z,4.40
2023-02-19T20:33:27.045Z,6.47
2023-02-19T20:35:53.459Z,5.68
2023-02-19T20:38:19.861Z,8.23
2023-02-19T20:40:46.366Z,8.32
2023-02-19T20:43:12.785Z,9.38
2023-02-19T20:45:40.891Z,5.18
2023-02-19T20:48:07.285Z,5.53
2023-02-19T20:50:33.666Z,8.20
2023-02-19T20:53:00.058Z,10.20
2023-02-19T20:55:26.520Z,6.90
2023-02-19T20:57:52.922Z,7.32
2023-02-19T21:00:19.888Z,5.70
2023-02-19T21:02:46.382Z,7.47
2023-02-19T21:05:13.450Z,7.70
2023-02-19T21:07:39.928Z,8.15
2023-02-19T21:10:06.869Z,6.07
2023-02-19T21:12:33.793Z,5.88
2023-02-19T21:15:00.204Z,5.78
2023-02-19T21:17:26.660Z,9.43
2023-02-19T21:19:53.211Z,10.60
2023-02-19T21:22:19.655Z,7.75
2023-02-19T21:24:49.495Z,5.75
2023-02-19T21:27:15.917Z,4.75
2023-02-19T21:29:42.295Z,4.85
2023-02-19T21:32:08.777Z,8.80
2023-02-19T21:34:35.293Z,8.27
2023-02-19T21:37:01.673Z,7.78
2023-02-19T21:39:28.124Z,5.05
2023-02-19T21:41:54.615Z,9.10
2023-02-19T21:44:21.638Z,5.60
2023-02-19T21:46:48.394Z,8.48
2023-02-19T21:49:14.885Z,9.20
2023-02-19T21:51:43.766Z,11.73
2023-02-19T21:54:15.488Z,7.93
2023-02-19T21:56:41.999Z,7.40
2023-02-19T21:59:08.625Z,8.43
2023-02-19T22:01:40.416Z,6.93
2023-02-19T22:04:07.687Z,6.43
2023-02-19T22:06:34.573Z,9.05
2023-02-19T22:09:01.580Z,7.63
2023-02-19T22:11:28.007Z,7.90
2023-02-19T22:13:54.401Z,11.18
2023-02-19T22:16:20.883Z,7.35
2023-02-19T22:18:52.680Z,6.38
2023-02-19T22:21:19.973Z,7.53
2023-02-19T22:23:47.879Z,9.13
2023-02-19T22:26:22.435Z,7.00
2023-02-19T22:28:49.021Z,6.70
2023-02-19T22:31:17.548Z,7.03
2023-02-19T22:33:44.015Z,7.10
2023-02-19T22:36:14.678Z,8.43
2023-02-19T22:38:41.085Z,6.25
2023-02-19T22:41:07.541Z,8.88
2023-02-19T22:43:33.954Z,8.73
2023-02-19T22:46:00.423Z,7.53
2023-02-19T22:48:30.147Z,7.75
2023-02-19T22:50:58.752Z,5.20
2023-02-19T22:53:25.327Z,6.97
2023-02-19T22:55:51.708Z,13.38
2023-02-19T22:58:18.112Z,6.88
2023-02-19T23:00:44.514Z,8.30
2023-02-19T23:03:10.953Z,8.38
2023-02-19T23:05:37.357Z,7.22
2023-02-19T23:08:03.936Z,9.88
2023-02-19T23:10:30.329Z,8.13
2023-02-19T23:12:56.737Z,6.95
2023-02-19T23:15:23.111Z,8.27
2023-02-19T23:17:49.571Z,10.07
2023-02-19T23:20:16.080Z,7.40
2023-02-19T23:22:43.540Z,8.77
2023-02-19T23:25:09.925Z,10.07
2023-02-19T23:27:36.333Z,9.88
2023-02-19T23:30:02.924Z,4.97
2023-02-19T23:32:29.367Z,10.73
2023-02-19T23:34:55.749Z,10.57
2023-02-19T23:37:22.168Z,10.90
2023-02-19T23:39:48.576Z,9.88
2023-02-19T23:42:18.888Z,8.32
2023-02-19T23:44:48.664Z,6.83
2023-02-19T23:47:15.144Z,6.05
2023-02-19T23:49:41.971Z,12.52
2023-02-19T23:52:08.483Z,8.10
2023-02-19T23:54:35.026Z,7.40
2023-02-19T23:57:01.509Z,6.22
2023-02-19T23:59:27.977Z,5.57
